sensor_id;sensor_type;location;lat;lon;timestamp;P1;durP1;ratioP1;P2;durP2;ratioP2
17967;SDS011;9109;48.050;11.696;2022-09-03T03:47:04;1.50;;;1.40;;
17967;SDS011;9109;48.050;11.696;2022-09-03T03:50:23;2.30;;;1.70;;
17967;SDS011;9109;48.050;11.696;2022-09-03T03:57:18;7.60;;;1.77;;
17967;SDS011;9109;48.050;11.696;2022-09-03T04:00:49;2.73;;;1.60;;
17967;SDS011;9109;48.050;11.696;2022-09-03T04:04:09;5.97;;;1.60;;
17967;SDS011;9109;48.050;11.696;2022-09-03T04:07:39;9.77;;;2.17;;
17967;SDS011;9109;48.050;11.696;2022-09-03T04:11:00;4.85;;;2.10;;
17967;SDS011;9109;48.050;11.696;2022-09-03T04:14:17;4.33;;;1.77;;
17967;SDS011;9109;48.050;11.696;2022-09-03T04:17:36;5.37;;;1.93;;
17967;SDS011;9109;48.050;11.696;2022-09-03T04:20:59;4.73;;;1.90;;
17967;SDS011;9109;48.050;11.696;2022-09-03T04:24:03;2.90;;;2.10;;
17967;SDS011;9109;48.050;11.696;2022-09-03T04:27:06;3.73;;;1.77;;
17967;SDS011;9109;48.050;11.696;2022-09-03T04:30:08;4.82;;;1.80;;
17967;SDS011;9109;48.050;11.696;2022-09-03T04:33:11;5.57;;;2.07;;
17967;SDS011;9109;48.050;11.696;2022-09-03T04:36:15;7.50;;;2.50;;
17967;SDS011;9109;48.050;11.696;2022-09-03T04:39:19;3.60;;;1.93;;
17967;SDS011;9109;48.050;11.696;2022-09-03T04:42:21;5.22;;;2.08;;
17967;SDS011;9109;48.050;11.696;2022-09-03T04:45:23;3.25;;;1.90;;
17967;SDS011;9109;48.050;11.696;2022-09-03T04:48:25;3.30;;;1.90;;
17967;SDS011;9109;48.050;11.696;2022-09-03T04:51:29;5.20;;;1.88;;
17967;SDS011;9109;48.050;11.696;2022-09-03T04:54:31;7.00;;;2.00;;
17967;SDS011;9109;48.050;11.696;2022-09-03T04:57:33;5.73;;;2.20;;
17967;SDS011;9109;48.050;11.696;2022-09-03T05:00:36;5.38;;;2.13;;
17967;SDS011;9109;48.050;11.696;2022-09-03T05:03:38;6.80;;;2.03;;
17967;SDS011;9109;48.050;11.696;2022-09-03T05:06:42;3.37;;;1.83;;
17967;SDS011;9109;48.050;11.696;2022-09-03T05:09:44;7.47;;;2.53;;
17967;SDS011;9109;48.050;11.696;2022-09-03T05:12:46;3.45;;;2.05;;
17967;SDS011;9109;48.050;11.696;2022-09-03T05:15:48;4.47;;;2.13;;
17967;SDS011;9109;48.050;11.696;2022-09-03T05:18:51;5.77;;;2.20;;
17967;SDS011;9109;48.050;11.696;2022-09-03T05:21:55;4.97;;;1.93;;
17967;SDS011;9109;48.050;11.696;2022-09-03T05:24:57;3.73;;;2.00;;
17967;SDS011;9109;48.050;11.696;2022-09-03T05:27:59;6.50;;;2.27;;
17967;SDS011;9109;48.050;11.696;2022-09-03T05:31:02;3.43;;;2.50;;
17967;SDS011;9109;48.050;11.696;2022-09-03T05:34:05;4.93;;;2.30;;
17967;SDS011;9109;48.050;11.696;2022-09-03T05:37:10;5.63;;;2.28;;
17967;SDS011;9109;48.050;11.696;2022-09-03T05:40:12;3.57;;;2.23;;
17967;SDS011;9109;48.050;11.696;2022-09-03T05:43:14;2.87;;;1.87;;
17967;SDS011;9109;48.050;11.696;2022-09-03T05:46:16;3.75;;;2.50;;
17967;SDS011;9109;48.050;11.696;2022-09-03T05:49:19;4.40;;;2.30;;
17967;SDS011;9109;48.050;11.696;2022-09-03T05:52:22;9.30;;;2.53;;
17967;SDS011;9109;48.050;11.696;2022-09-03T05:55:24;3.97;;;2.60;;
17967;SDS011;9109;48.050;11.696;2022-09-03T05:58:29;8.40;;;2.35;;
17967;SDS011;9109;48.050;11.696;2022-09-03T06:01:32;5.20;;;3.15;;
17967;SDS011;9109;48.050;11.696;2022-09-03T06:04:35;9.17;;;2.87;;
17967;SDS011;9109;48.050;11.696;2022-09-03T06:07:38;3.50;;;2.65;;
17967;SDS011;9109;48.050;11.696;2022-09-03T06:10:40;6.07;;;3.30;;
17967;SDS011;9109;48.050;11.696;2022-09-03T06:13:42;8.93;;;3.20;;
17967;SDS011;9109;48.050;11.696;2022-09-03T06:16:45;5.28;;;3.40;;
17967;SDS011;9109;48.050;11.696;2022-09-03T06:19:48;10.07;;;3.05;;
17967;SDS011;9109;48.050;11.696;2022-09-03T06:22:51;8.55;;;2.72;;
17967;SDS011;9109;48.050;11.696;2022-09-03T06:26:00;6.03;;;2.88;;
17967;SDS011;9109;48.050;11.696;2022-09-03T06:29:03;5.35;;;3.10;;
17967;SDS011;9109;48.050;11.696;2022-09-03T06:32:05;4.28;;;3.40;;
17967;SDS011;9109;48.050;11.696;2022-09-03T06:35:07;3.70;;;2.78;;
17967;SDS011;9109;48.050;11.696;2022-09-03T06:38:11;3.40;;;2.40;;
17967;SDS011;9109;48.050;11.696;2022-09-03T06:41:15;6.78;;;3.22;;
17967;SDS011;9109;48.050;11.696;2022-09-03T06:44:24;4.05;;;3.05;;
17967;SDS011;9109;48.050;11.696;2022-09-03T06:47:25;11.05;;;3.20;;
17967;SDS011;9109;48.050;11.696;2022-09-03T06:50:29;10.90;;;2.67;;
17967;SDS011;9109;48.050;11.696;2022-09-03T06:53:33;4.90;;;2.85;;
17967;SDS011;9109;48.050;11.696;2022-09-03T06:56:36;5.10;;;3.00;;
17967;SDS011;9109;48.050;11.696;2022-09-03T06:59:39;5.72;;;3.38;;
17967;SDS011;9109;48.050;11.696;2022-09-03T07:02:42;7.43;;;3.08;;
17967;SDS011;9109;48.050;11.696;2022-09-03T07:05:47;9.02;;;3.05;;
17967;SDS011;9109;48.050;11.696;2022-09-03T07:08:51;3.67;;;3.05;;
17967;SDS011;9109;48.050;11.696;2022-09-03T07:11:54;5.38;;;2.53;;
17967;SDS011;9109;48.050;11.696;2022-09-03T07:14:56;3.30;;;2.47;;
17967;SDS011;9109;48.050;11.696;2022-09-03T07:17:58;11.55;;;2.53;;
17967;SDS011;9109;48.050;11.696;2022-09-03T07:21:01;3.22;;;2.60;;
17967;SDS011;9109;48.050;11.696;2022-09-03T07:24:06;3.67;;;2.80;;
17967;SDS011;9109;48.050;11.696;2022-09-03T07:27:08;5.50;;;3.00;;
17967;SDS011;9109;48.050;11.696;2022-09-03T07:30:11;5.35;;;2.60;;
17967;SDS011;9109;48.050;11.696;2022-09-03T07:33:13;6.10;;;3.00;;
17967;SDS011;9109;48.050;11.696;2022-09-03T07:36:18;3.67;;;2.78;;
17967;SDS011;9109;48.050;11.696;2022-09-03T07:39:24;5.20;;;2.88;;
17967;SDS011;9109;48.050;11.696;2022-09-03T07:42:28;4.95;;;3.15;;
17967;SDS011;9109;48.050;11.696;2022-09-03T07:45:30;8.23;;;2.80;;
17967;SDS011;9109;48.050;11.696;2022-09-03T07:48:32;7.75;;;3.03;;
17967;SDS011;9109;48.050;11.696;2022-09-03T07:51:35;7.15;;;3.30;;
17967;SDS011;9109;48.050;11.696;2022-09-03T07:54:39;4.20;;;3.00;;
17967;SDS011;9109;48.050;11.696;2022-09-03T07:57:43;4.40;;;3.33;;
17967;SDS011;9109;48.050;11.696;2022-09-03T08:00:45;6.97;;;3.10;;
17967;SDS011;9109;48.050;11.696;2022-09-03T08:03:49;3.10;;;2.80;;
17967;SDS011;9109;48.050;11.696;2022-09-03T08:06:52;8.80;;;3.25;;
17967;SDS011;9109;48.050;11.696;2022-09-03T08:09:56;9.02;;;3.13;;
17967;SDS011;9109;48.050;11.696;2022-09-03T08:12:58;4.45;;;3.15;;
17967;SDS011;9109;48.050;11.696;2022-09-03T08:16:00;5.70;;;2.95;;
17967;SDS011;9109;48.050;11.696;2022-09-03T08:19:02;4.30;;;3.17;;
17967;SDS011;9109;48.050;11.696;2022-09-03T08:22:04;5.13;;;3.33;;
17967;SDS011;9109;48.050;11.696;2022-09-03T08:25:08;7.20;;;3.05;;
17967;SDS011;9109;48.050;11.696;2022-09-03T08:28:10;5.20;;;3.10;;
17967;SDS011;9109;48.050;11.696;2022-09-03T08:31:12;6.85;;;3.63;;
17967;SDS011;9109;48.050;11.696;2022-09-03T08:34:15;3.83;;;3.30;;
17967;SDS011;9109;48.050;11.696;2022-09-03T08:37:17;3.30;;;3.00;;
17967;SDS011;9109;48.050;11.696;2022-09-03T08:40:21;5.30;;;3.75;;
17967;SDS011;9109;48.050;11.696;2022-09-03T08:43:23;5.88;;;3.22;;
17967;SDS011;9109;48.050;11.696;2022-09-03T08:46:35;7.68;;;3.40;;
17967;SDS011;9109;48.050;11.696;2022-09-03T08:49:45;5.90;;;4.28;;
17967;SDS011;9109;48.050;11.696;2022-09-03T08:52:53;5.00;;;3.65;;
17967;SDS011;9109;48.050;11.696;2022-09-03T08:56:03;5.25;;;3.97;;
17967;SDS011;9109;48.050;11.696;2022-09-03T08:59:13;6.80;;;3.58;;
17967;SDS011;9109;48.050;11.696;2022-09-03T09:02:16;7.80;;;3.78;;
17967;SDS011;9109;48.050;11.696;2022-09-03T09:05:30;5.20;;;3.65;;
17967;SDS011;9109;48.050;11.696;2022-09-03T09:08:44;4.60;;;3.17;;
17967;SDS011;9109;48.050;11.696;2022-09-03T09:11:59;5.53;;;3.50;;
17967;SDS011;9109;48.050;11.696;2022-09-03T09:15:10;4.28;;;3.20;;
17967;SDS011;9109;48.050;11.696;2022-09-03T09:18:16;4.43;;;3.50;;
17967;SDS011;9109;48.050;11.696;2022-09-03T09:21:26;4.63;;;3.55;;
17967;SDS011;9109;48.050;11.696;2022-09-03T09:24:32;5.55;;;3.75;;
17967;SDS011;9109;48.050;11.696;2022-09-03T09:27:41;5.03;;;3.30;;
17967;SDS011;9109;48.050;11.696;2022-09-03T09:30:51;3.35;;;2.72;;
17967;SDS011;9109;48.050;11.696;2022-09-03T09:33:59;4.40;;;2.90;;
17967;SDS011;9109;48.050;11.696;2022-09-03T09:37:05;4.63;;;3.30;;
17967;SDS011;9109;48.050;11.696;2022-09-03T09:40:23;4.53;;;2.70;;
17967;SDS011;9109;48.050;11.696;2022-09-03T09:43:33;4.05;;;2.90;;
17967;SDS011;9109;48.050;11.696;2022-09-03T09:46:36;6.38;;;2.17;;
17967;SDS011;9109;48.050;11.696;2022-09-03T09:49:42;4.28;;;2.72;;
17967;SDS011;9109;48.050;11.696;2022-09-03T09:53:00;3.40;;;2.40;;
17967;SDS011;9109;48.050;11.696;2022-09-03T09:56:06;2.47;;;2.00;;
17967;SDS011;9109;48.050;11.696;2022-09-03T09:59:11;2.47;;;2.20;;
17967;SDS011;9109;48.050;11.696;2022-09-03T10:02:18;3.20;;;2.13;;
17967;SDS011;9109;48.050;11.696;2022-09-03T10:05:27;6.40;;;1.90;;
17967;SDS011;9109;48.050;11.696;2022-09-03T10:08:32;2.45;;;1.90;;
17967;SDS011;9109;48.050;11.696;2022-09-03T10:11:34;6.78;;;2.00;;
17967;SDS011;9109;48.050;11.696;2022-09-03T10:14:41;2.03;;;1.77;;
17967;SDS011;9109;48.050;11.696;2022-09-03T10:17:50;2.63;;;1.73;;
17967;SDS011;9109;48.050;11.696;2022-09-03T10:20:59;2.88;;;1.88;;
17967;SDS011;9109;48.050;11.696;2022-09-03T10:24:14;5.18;;;1.67;;
17967;SDS011;9109;48.050;11.696;2022-09-03T10:27:29;3.20;;;1.92;;
17967;SDS011;9109;48.050;11.696;2022-09-03T10:30:33;3.10;;;1.83;;
17967;SDS011;9109;48.050;11.696;2022-09-03T10:33:48;3.28;;;1.60;;
17967;SDS011;9109;48.050;11.696;2022-09-03T10:36:58;5.22;;;2.28;;
17967;SDS011;9109;48.050;11.696;2022-09-03T10:40:10;2.85;;;1.60;;
17967;SDS011;9109;48.050;11.696;2022-09-03T10:43:21;2.63;;;1.77;;
17967;SDS011;9109;48.050;11.696;2022-09-03T10:46:40;2.45;;;1.83;;
17967;SDS011;9109;48.050;11.696;2022-09-03T10:49:51;2.45;;;1.70;;
17967;SDS011;9109;48.050;11.696;2022-09-03T10:53:04;2.35;;;1.70;;
17967;SDS011;9109;48.050;11.696;2022-09-03T10:56:12;2.25;;;1.50;;
17967;SDS011;9109;48.050;11.696;2022-09-03T10:59:23;2.88;;;1.65;;
17967;SDS011;9109;48.050;11.696;2022-09-03T11:02:55;2.92;;;1.70;;
17967;SDS011;9109;48.050;11.696;2022-09-03T11:06:12;2.35;;;1.50;;
17967;SDS011;9109;48.050;11.696;2022-09-03T11:09:20;3.53;;;1.80;;
17967;SDS011;9109;48.050;11.696;2022-09-03T11:12:27;3.67;;;1.52;;
17967;SDS011;9109;48.050;11.696;2022-09-03T11:15:33;2.35;;;1.63;;
17967;SDS011;9109;48.050;11.696;2022-09-03T11:18:41;1.90;;;1.40;;
17967;SDS011;9109;48.050;11.696;2022-09-03T11:21:47;4.53;;;1.50;;
17967;SDS011;9109;48.050;11.696;2022-09-03T11:24:53;1.88;;;1.25;;
17967;SDS011;9109;48.050;11.696;2022-09-03T11:28:00;2.00;;;1.30;;
17967;SDS011;9109;48.050;11.696;2022-09-03T11:31:14;2.13;;;1.30;;
17967;SDS011;9109;48.050;11.696;2022-09-03T11:34:29;1.63;;;1.30;;
17967;SDS011;9109;48.050;11.696;2022-09-03T11:37:32;7.72;;;2.13;;
17967;SDS011;9109;48.050;11.696;2022-09-03T11:40:54;1.20;;;1.10;;
17967;SDS011;9109;48.050;11.696;2022-09-03T11:44:10;1.80;;;1.40;;
17967;SDS011;9109;48.050;11.696;2022-09-03T11:47:21;2.25;;;1.50;;
17967;SDS011;9109;48.050;11.696;2022-09-03T11:50:26;2.42;;;1.58;;
17967;SDS011;9109;48.050;11.696;2022-09-03T11:53:32;2.45;;;1.55;;
17967;SDS011;9109;48.050;11.696;2022-09-03T11:56:35;2.03;;;1.35;;
17967;SDS011;9109;48.050;11.696;2022-09-03T11:59:38;1.38;;;1.17;;
17967;SDS011;9109;48.050;11.696;2022-09-03T12:02:42;1.52;;;1.30;;
17967;SDS011;9109;48.050;11.696;2022-09-03T12:05:52;1.60;;;1.20;;
17967;SDS011;9109;48.050;11.696;2022-09-03T12:09:19;3.83;;;1.58;;
17967;SDS011;9109;48.050;11.696;2022-09-03T12:16:21;2.22;;;1.20;;
17967;SDS011;9109;48.050;11.696;2022-09-03T12:19:35;3.40;;;1.45;;
17967;SDS011;9109;48.050;11.696;2022-09-03T12:22:41;1.25;;;1.10;;
17967;SDS011;9109;48.050;11.696;2022-09-03T12:25:43;4.07;;;1.50;;
17967;SDS011;9109;48.050;11.696;2022-09-03T12:28:47;1.65;;;1.50;;
17967;SDS011;9109;48.050;11.696;2022-09-03T12:31:50;2.72;;;1.02;;
17967;SDS011;9109;48.050;11.696;2022-09-03T12:34:55;4.28;;;1.30;;
17967;SDS011;9109;48.050;11.696;2022-09-03T12:37:58;5.30;;;1.50;;
17967;SDS011;9109;48.050;11.696;2022-09-03T12:41:00;1.50;;;1.30;;
17967;SDS011;9109;48.050;11.696;2022-09-03T12:44:02;4.35;;;1.55;;
17967;SDS011;9109;48.050;11.696;2022-09-03T12:47:09;2.50;;;1.40;;
17967;SDS011;9109;48.050;11.696;2022-09-03T12:50:14;1.55;;;1.38;;
17967;SDS011;9109;48.050;11.696;2022-09-03T12:53:23;1.70;;;1.40;;
17967;SDS011;9109;48.050;11.696;2022-09-03T12:56:30;2.20;;;1.30;;
17967;SDS011;9109;48.050;11.696;2022-09-03T12:59:34;1.95;;;1.40;;
17967;SDS011;9109;48.050;11.696;2022-09-03T13:02:40;2.33;;;1.70;;
17967;SDS011;9109;48.050;11.696;2022-09-03T13:05:48;3.83;;;1.30;;
17967;SDS011;9109;48.050;11.696;2022-09-03T13:08:55;3.75;;;1.25;;
17967;SDS011;9109;48.050;11.696;2022-09-03T13:12:00;1.98;;;1.38;;
17967;SDS011;9109;48.050;11.696;2022-09-03T13:15:06;1.15;;;1.05;;
17967;SDS011;9109;48.050;11.696;2022-09-03T13:18:14;2.58;;;1.60;;
17967;SDS011;9109;48.050;11.696;2022-09-03T13:21:28;1.83;;;1.25;;
17967;SDS011;9109;48.050;11.696;2022-09-03T13:24:45;1.50;;;1.40;;
17967;SDS011;9109;48.050;11.696;2022-09-03T13:27:58;2.25;;;1.35;;
17967;SDS011;9109;48.050;11.696;2022-09-03T13:31:09;2.00;;;1.50;;
17967;SDS011;9109;48.050;11.696;2022-09-03T13:34:29;1.83;;;1.30;;
17967;SDS011;9109;48.050;11.696;2022-09-03T13:37:35;2.30;;;1.20;;
17967;SDS011;9109;48.050;11.696;2022-09-03T13:40:43;1.65;;;1.30;;
17967;SDS011;9109;48.050;11.696;2022-09-03T13:43:50;1.85;;;1.30;;
17967;SDS011;9109;48.050;11.696;2022-09-03T13:46:59;2.80;;;1.23;;
17967;SDS011;9109;48.050;11.696;2022-09-03T13:50:06;2.00;;;1.60;;
17967;SDS011;9109;48.050;11.696;2022-09-03T13:53:23;1.90;;;1.70;;
17967;SDS011;9109;48.050;11.696;2022-09-03T13:56:43;1.95;;;1.40;;
17967;SDS011;9109;48.050;11.696;2022-09-03T13:59:53;2.00;;;1.40;;
17967;SDS011;9109;48.050;11.696;2022-09-03T14:03:05;2.55;;;1.40;;
17967;SDS011;9109;48.050;11.696;2022-09-03T14:06:18;1.63;;;1.52;;
17967;SDS011;9109;48.050;11.696;2022-09-03T14:09:26;2.38;;;1.20;;
17967;SDS011;9109;48.050;11.696;2022-09-03T14:12:38;2.22;;;1.30;;
17967;SDS011;9109;48.050;11.696;2022-09-03T14:15:46;2.83;;;1.35;;
17967;SDS011;9109;48.050;11.696;2022-09-03T14:18:58;1.40;;;1.10;;
17967;SDS011;9109;48.050;11.696;2022-09-03T14:22:07;2.60;;;1.42;;
17967;SDS011;9109;48.050;11.696;2022-09-03T14:25:19;1.60;;;1.40;;
17967;SDS011;9109;48.050;11.696;2022-09-03T14:28:28;2.88;;;1.30;;
17967;SDS011;9109;48.050;11.696;2022-09-03T14:31:37;4.60;;;1.70;;
17967;SDS011;9109;48.050;11.696;2022-09-03T14:35:06;2.15;;;1.40;;
17967;SDS011;9109;48.050;11.696;2022-09-03T14:38:46;2.45;;;1.20;;
17967;SDS011;9109;48.050;11.696;2022-09-03T14:42:15;2.38;;;0.77;;
17967;SDS011;9109;48.050;11.696;2022-09-03T14:45:46;1.63;;;0.93;;
17967;SDS011;9109;48.050;11.696;2022-09-03T14:52:32;7.15;;;1.52;;
17967;SDS011;9109;48.050;11.696;2022-09-03T14:56:01;8.80;;;1.50;;
17967;SDS011;9109;48.050;11.696;2022-09-03T14:59:22;7.47;;;2.13;;
17967;SDS011;9109;48.050;11.696;2022-09-03T15:02:59;6.78;;;1.60;;
17967;SDS011;9109;48.050;11.696;2022-09-03T15:06:17;7.72;;;1.92;;
17967;SDS011;9109;48.050;11.696;2022-09-03T15:09:30;9.27;;;1.70;;
17967;SDS011;9109;48.050;11.696;2022-09-03T15:12:39;5.35;;;1.83;;
17967;SDS011;9109;48.050;11.696;2022-09-03T15:15:49;14.43;;;1.60;;
17967;SDS011;9109;48.050;11.696;2022-09-03T15:19:12;7.88;;;1.83;;
17967;SDS011;9109;48.050;11.696;2022-09-03T15:22:36;7.00;;;1.75;;
17967;SDS011;9109;48.050;11.696;2022-09-03T15:25:50;4.35;;;1.67;;
17967;SDS011;9109;48.050;11.696;2022-09-03T15:29:10;4.55;;;1.30;;
17967;SDS011;9109;48.050;11.696;2022-09-03T15:32:40;5.05;;;1.60;;
17967;SDS011;9109;48.050;11.696;2022-09-03T15:35:54;5.95;;;1.30;;
17967;SDS011;9109;48.050;11.696;2022-09-03T15:39:05;5.90;;;1.40;;
17967;SDS011;9109;48.050;11.696;2022-09-03T15:42:17;10.10;;;3.13;;
17967;SDS011;9109;48.050;11.696;2022-09-03T15:45:31;5.93;;;1.50;;
17967;SDS011;9109;48.050;11.696;2022-09-03T15:48:46;6.20;;;1.25;;
17967;SDS011;9109;48.050;11.696;2022-09-03T15:52:05;2.75;;;1.23;;
17967;SDS011;9109;48.050;11.696;2022-09-03T15:55:22;7.32;;;1.40;;
17967;SDS011;9109;48.050;11.696;2022-09-03T15:58:33;4.75;;;1.48;;
17967;SDS011;9109;48.050;11.696;2022-09-03T16:01:43;6.70;;;1.10;;
17967;SDS011;9109;48.050;11.696;2022-09-03T16:04:58;4.88;;;1.08;;
17967;SDS011;9109;48.050;11.696;2022-09-03T16:08:09;1.38;;;1.00;;
17967;SDS011;9109;48.050;11.696;2022-09-03T16:11:20;3.45;;;1.20;;
17967;SDS011;9109;48.050;11.696;2022-09-03T16:14:36;4.28;;;1.42;;
17967;SDS011;9109;48.050;11.696;2022-09-03T16:17:51;3.05;;;1.20;;
17967;SDS011;9109;48.050;11.696;2022-09-03T16:21:00;4.20;;;1.42;;
17967;SDS011;9109;48.050;11.696;2022-09-03T16:24:11;3.85;;;1.33;;
17967;SDS011;9109;48.050;11.696;2022-09-03T16:27:19;1.67;;;1.20;;
17967;SDS011;9109;48.050;11.696;2022-09-03T16:30:34;4.72;;;1.52;;
17967;SDS011;9109;48.050;11.696;2022-09-03T16:33:50;4.68;;;1.60;;
17967;SDS011;9109;48.050;11.696;2022-09-03T16:37:08;1.75;;;1.15;;
17967;SDS011;9109;48.050;11.696;2022-09-03T16:40:25;4.82;;;1.52;;
17967;SDS011;9109;48.050;11.696;2022-09-03T16:43:37;5.07;;;1.20;;
17967;SDS011;9109;48.050;11.696;2022-09-03T16:46:46;5.93;;;1.40;;
17967;SDS011;9109;48.050;11.696;2022-09-03T16:49:57;2.92;;;1.13;;
17967;SDS011;9109;48.050;11.696;2022-09-03T16:53:12;2.08;;;1.23;;
17967;SDS011;9109;48.050;11.696;2022-09-03T16:56:28;4.68;;;1.35;;
17967;SDS011;9109;48.050;11.696;2022-09-03T17:03:20;8.50;;;1.48;;
17967;SDS011;9109;48.050;11.696;2022-09-03T17:06:42;3.05;;;1.33;;
17967;SDS011;9109;48.050;11.696;2022-09-03T17:09:57;1.40;;;1.10;;
17967;SDS011;9109;48.050;11.696;2022-09-03T17:13:13;1.80;;;1.05;;
17967;SDS011;9109;48.050;11.696;2022-09-03T17:16:36;2.90;;;1.05;;
17967;SDS011;9109;48.050;11.696;2022-09-03T17:19:47;2.67;;;1.13;;
17967;SDS011;9109;48.050;11.696;2022-09-03T17:22:57;2.45;;;1.48;;
17967;SDS011;9109;48.050;11.696;2022-09-03T17:26:09;1.95;;;1.05;;
17967;SDS011;9109;48.050;11.696;2022-09-03T17:29:19;2.83;;;1.15;;
17967;SDS011;9109;48.050;11.696;2022-09-03T17:32:45;1.90;;;1.08;;
17967;SDS011;9109;48.050;11.696;2022-09-03T17:36:03;2.13;;;0.90;;
17967;SDS011;9109;48.050;11.696;2022-09-03T17:39:22;5.82;;;1.02;;
17967;SDS011;9109;48.050;11.696;2022-09-03T17:42:48;4.18;;;1.08;;
17967;SDS011;9109;48.050;11.696;2022-09-03T17:45:58;3.28;;;1.20;;
17967;SDS011;9109;48.050;11.696;2022-09-03T17:49:13;1.33;;;1.00;;
17967;SDS011;9109;48.050;11.696;2022-09-03T17:52:27;1.70;;;1.08;;
17967;SDS011;9109;48.050;11.696;2022-09-03T17:55:39;3.13;;;1.05;;
17967;SDS011;9109;48.050;11.696;2022-09-03T17:58:49;5.07;;;1.20;;
17967;SDS011;9109;48.050;11.696;2022-09-03T18:01:59;3.08;;;1.05;;
17967;SDS011;9109;48.050;11.696;2022-09-03T18:05:07;2.60;;;1.17;;
17967;SDS011;9109;48.050;11.696;2022-09-03T18:08:19;2.60;;;0.95;;
17967;SDS011;9109;48.050;11.696;2022-09-03T18:11:27;3.92;;;1.10;;
17967;SDS011;9109;48.050;11.696;2022-09-03T18:14:36;4.15;;;1.05;;
17967;SDS011;9109;48.050;11.696;2022-09-03T18:17:50;1.20;;;0.80;;
17967;SDS011;9109;48.050;11.696;2022-09-03T18:20:58;3.42;;;0.88;;
17967;SDS011;9109;48.050;11.696;2022-09-03T18:24:22;1.92;;;1.00;;
17967;SDS011;9109;48.050;11.696;2022-09-03T18:27:46;4.88;;;1.20;;
17967;SDS011;9109;48.050;11.696;2022-09-03T18:31:12;3.33;;;1.08;;
17967;SDS011;9109;48.050;11.696;2022-09-03T18:34:35;1.98;;;1.13;;
17967;SDS011;9109;48.050;11.696;2022-09-03T18:37:55;1.55;;;1.00;;
17967;SDS011;9109;48.050;11.696;2022-09-03T18:41:20;1.90;;;1.10;;
17967;SDS011;9109;48.050;11.696;2022-09-03T18:44:55;1.92;;;1.08;;
17967;SDS011;9109;48.050;11.696;2022-09-03T18:48:22;2.08;;;0.95;;
17967;SDS011;9109;48.050;11.696;2022-09-03T18:51:53;1.23;;;0.93;;
17967;SDS011;9109;48.050;11.696;2022-09-03T18:55:19;2.50;;;1.13;;
17967;SDS011;9109;48.050;11.696;2022-09-03T18:58:52;2.67;;;1.13;;
17967;SDS011;9109;48.050;11.696;2022-09-03T19:02:26;3.35;;;1.20;;
17967;SDS011;9109;48.050;11.696;2022-09-03T19:06:00;2.00;;;1.05;;
17967;SDS011;9109;48.050;11.696;2022-09-03T19:09:31;1.67;;;1.17;;
17967;SDS011;9109;48.050;11.696;2022-09-03T19:13:08;3.72;;;1.05;;
17967;SDS011;9109;48.050;11.696;2022-09-03T19:16:42;1.85;;;1.17;;
17967;SDS011;9109;48.050;11.696;2022-09-03T19:20:12;1.80;;;1.25;;
17967;SDS011;9109;48.050;11.696;2022-09-03T19:23:38;2.30;;;1.30;;
17967;SDS011;9109;48.050;11.696;2022-09-03T19:27:02;7.22;;;1.27;;
17967;SDS011;9109;48.050;11.696;2022-09-03T19:30:28;5.80;;;1.25;;
17967;SDS011;9109;48.050;11.696;2022-09-03T19:33:59;2.03;;;1.00;;
17967;SDS011;9109;48.050;11.696;2022-09-03T19:37:26;2.88;;;1.08;;
17967;SDS011;9109;48.050;11.696;2022-09-03T19:40:56;5.20;;;1.10;;
17967;SDS011;9109;48.050;11.696;2022-09-03T19:44:28;2.20;;;1.10;;
17967;SDS011;9109;48.050;11.696;2022-09-03T19:48:00;1.20;;;0.98;;
17967;SDS011;9109;48.050;11.696;2022-09-03T19:51:28;1.75;;;1.10;;
17967;SDS011;9109;48.050;11.696;2022-09-03T19:54:53;5.65;;;1.42;;
17967;SDS011;9109;48.050;11.696;2022-09-03T19:58:16;2.13;;;1.15;;
17967;SDS011;9109;48.050;11.696;2022-09-03T20:01:40;1.00;;;0.90;;
17967;SDS011;9109;48.050;11.696;2022-09-03T20:05:01;1.40;;;1.00;;
17967;SDS011;9109;48.050;11.696;2022-09-03T20:08:24;6.63;;;1.13;;
17967;SDS011;9109;48.050;11.696;2022-09-03T20:11:44;3.22;;;1.10;;
17967;SDS011;9109;48.050;11.696;2022-09-03T20:14:48;2.30;;;0.98;;
17967;SDS011;9109;48.050;11.696;2022-09-03T20:17:55;2.17;;;1.00;;
17967;SDS011;9109;48.050;11.696;2022-09-03T20:21:04;7.00;;;1.23;;
17967;SDS011;9109;48.050;11.696;2022-09-03T20:24:14;5.25;;;1.23;;
17967;SDS011;9109;48.050;11.696;2022-09-03T20:27:29;1.55;;;0.90;;
17967;SDS011;9109;48.050;11.696;2022-09-03T20:30:42;2.08;;;1.13;;
17967;SDS011;9109;48.050;11.696;2022-09-03T20:33:54;4.70;;;1.10;;
17967;SDS011;9109;48.050;11.696;2022-09-03T20:37:14;6.65;;;1.30;;
17967;SDS011;9109;48.050;11.696;2022-09-03T20:40:27;6.85;;;1.10;;
17967;SDS011;9109;48.050;11.696;2022-09-03T20:43:39;4.30;;;1.33;;
17967;SDS011;9109;48.050;11.696;2022-09-03T20:46:58;3.03;;;1.38;;
17967;SDS011;9109;48.050;11.696;2022-09-03T20:50:18;2.35;;;1.13;;
17967;SDS011;9109;48.050;11.696;2022-09-03T20:53:46;3.60;;;1.20;;
17967;SDS011;9109;48.050;11.696;2022-09-03T20:57:04;2.28;;;1.00;;
17967;SDS011;9109;48.050;11.696;2022-09-03T21:00:14;2.47;;;1.20;;
17967;SDS011;9109;48.050;11.696;2022-09-03T21:03:21;1.77;;;1.00;;
17967;SDS011;9109;48.050;11.696;2022-09-03T21:14:47;5.10;;;1.10;;
17967;SDS011;9109;48.050;11.696;2022-09-03T21:18:33;3.25;;;1.30;;
17967;SDS011;9109;48.050;11.696;2022-09-03T21:25:47;13.50;;;1.33;;
17967;SDS011;9109;48.050;11.696;2022-09-03T21:29:33;4.13;;;1.40;;
17967;SDS011;9109;48.050;11.696;2022-09-03T21:32:53;4.50;;;1.08;;
17967;SDS011;9109;48.050;11.696;2022-09-03T21:36:13;1.92;;;1.20;;
17967;SDS011;9109;48.050;11.696;2022-09-03T21:39:49;6.47;;;1.20;;
17967;SDS011;9109;48.050;11.696;2022-09-03T21:47:10;1.95;;;1.20;;
17967;SDS011;9109;48.050;11.696;2022-09-03T21:50:40;7.65;;;1.67;;
17967;SDS011;9109;48.050;11.696;2022-09-03T21:54:28;3.38;;;1.10;;
17967;SDS011;9109;48.050;11.696;2022-09-03T21:58:35;2.08;;;1.10;;
17967;SDS011;9109;48.050;11.696;2022-09-03T22:09:33;1.92;;;1.30;;
17967;SDS011;9109;48.050;11.696;2022-09-03T22:13:04;9.73;;;1.50;;
17967;SDS011;9109;48.050;11.696;2022-09-03T22:16:41;1.15;;;1.00;;
17967;SDS011;9109;48.050;11.696;2022-09-03T22:28:30;2.70;;;1.05;;
17967;SDS011;9109;48.050;11.696;2022-09-03T22:32:19;1.05;;;0.98;;
17967;SDS011;9109;48.050;11.696;2022-09-03T22:38:08;3.88;;;1.10;;
17967;SDS011;9109;48.050;11.696;2022-09-03T22:39:58;1.35;;;1.00;;
17967;SDS011;9109;48.050;11.696;2022-09-03T22:47:37;0.98;;;0.80;;
17967;SDS011;9109;48.050;11.696;2022-09-03T22:50:56;1.90;;;0.90;;
17967;SDS011;9109;48.050;11.696;2022-09-03T22:54:14;4.03;;;0.98;;
17967;SDS011;9109;48.050;11.696;2022-09-03T22:57:59;2.30;;;1.00;;
